createdAt,value
2019-03-20T00:28:23.019Z,1027.77
2019-03-20T00:28:23.587Z,1027.76
2019-03-20T00:28:24.187Z,1027.85
2019-03-20T00:28:24.786Z,1027.83
2019-03-20T00:28:25.388Z,1027.84
2019-03-20T00:28:25.988Z,1027.86
2019-03-20T00:28:26.586Z,1027.83
2019-03-20T00:28:27.184Z,1027.84
2019-03-20T00:29:21.185Z,1027.73
2019-03-20T00:29:21.751Z,1027.77
2019-03-20T00:29:22.351Z,1027.76
2019-03-20T00:29:22.950Z,1027.82
2019-03-20T00:29:23.549Z,1027.83
2019-03-20T00:29:24.149Z,1027.83
2019-03-20T00:29:24.750Z,1027.84
2019-03-20T00:30:38.778Z,1027.72
2019-03-20T00:30:39.372Z,1027.76
2019-03-20T00:30:39.972Z,1027.81
2019-03-20T00:30:40.571Z,1027.83
2019-03-20T00:30:41.173Z,1027.89
2019-03-20T00:30:41.771Z,1027.84
2019-03-20T00:30:42.371Z,1027.86
2019-03-20T00:31:36.475Z,1027.73
2019-03-20T00:31:37.024Z,1027.78
2019-03-20T00:31:37.624Z,1027.78
2019-03-20T00:31:38.225Z,1027.87
2019-03-20T00:31:38.823Z,1027.82
2019-03-20T00:31:39.423Z,1027.85
2019-03-20T00:31:40.024Z,1027.87
2019-03-20T00:32:34.080Z,1027.70
2019-03-20T00:32:34.676Z,1027.75
2019-03-20T00:32:35.276Z,1027.75
2019-03-20T00:32:35.876Z,1027.83
2019-03-20T00:32:36.475Z,1027.81
2019-03-20T00:32:37.074Z,1027.81
2019-03-20T00:32:37.675Z,1027.86
2019-03-20T00:33:31.735Z,1027.70
2019-03-20T00:33:32.329Z,1027.74
2019-03-20T00:33:32.930Z,1027.78
2019-03-20T00:33:33.527Z,1027.81
2019-03-20T00:33:34.127Z,1027.84
2019-03-20T00:33:34.727Z,1027.86
2019-03-20T00:33:35.326Z,1027.83
2019-03-20T00:34:29.410Z,1027.73
2019-03-20T00:34:29.988Z,1027.76
2019-03-20T00:34:30.579Z,1027.83
2019-03-20T00:34:31.179Z,1027.81
2019-03-20T00:34:31.781Z,1027.81
2019-03-20T00:34:32.379Z,1027.85
2019-03-20T00:34:32.979Z,1027.88
2019-03-20T00:35:27.042Z,1027.75
2019-03-20T00:35:27.633Z,1027.80
2019-03-20T00:35:28.232Z,1027.82
2019-03-20T00:35:28.832Z,1027.84
2019-03-20T00:35:29.432Z,1027.87
2019-03-20T00:35:30.031Z,1027.86
2019-03-20T00:35:30.631Z,1027.90
2019-03-20T00:36:24.688Z,1027.72
2019-03-20T00:36:25.284Z,1027.75
2019-03-20T00:36:25.885Z,1027.82
2019-03-20T00:36:26.484Z,1027.83
2019-03-20T00:36:27.084Z,1027.87
2019-03-20T00:36:27.685Z,1027.84
2019-03-20T00:36:28.284Z,1027.86
2019-03-20T00:37:22.341Z,1027.75
2019-03-20T00:37:22.942Z,1027.77
2019-03-20T00:37:23.535Z,1027.79
2019-03-20T00:37:24.137Z,1027.81
2019-03-20T00:37:24.737Z,1027.87
2019-03-20T00:37:25.335Z,1027.87
2019-03-20T00:37:25.934Z,1027.88
2019-03-20T00:38:19.993Z,1027.72
2019-03-20T00:38:20.591Z,1027.74
2019-03-20T00:38:21.187Z,1027.82
2019-03-20T00:38:21.788Z,1027.82
2019-03-20T00:38:22.389Z,1027.86
2019-03-20T00:38:22.988Z,1027.85
2019-03-20T00:38:23.587Z,1027.85
2019-03-20T00:39:17.668Z,1027.74
2019-03-20T00:39:18.239Z,1027.74
2019-03-20T00:39:18.840Z,1027.78
2019-03-20T00:39:19.440Z,1027.85
2019-03-20T00:39:20.041Z,1027.83
2019-03-20T00:39:20.638Z,1027.86
2019-03-20T00:39:21.239Z,1027.85
2019-03-20T00:40:15.296Z,1027.69
2019-03-20T00:40:15.892Z,1027.76
2019-03-20T00:40:16.492Z,1027.79
2019-03-20T00:40:17.091Z,1027.80
2019-03-20T00:40:17.694Z,1027.82
2019-03-20T00:40:18.291Z,1027.83
2019-03-20T00:40:18.890Z,1027.87
2019-03-20T00:41:12.948Z,1027.69
2019-03-20T00:41:13.544Z,1027.74
2019-03-20T00:41:14.144Z,1027.75
2019-03-20T00:41:14.743Z,1027.80
2019-03-20T00:41:15.343Z,1027.85
2019-03-20T00:41:15.946Z,1027.82
2019-03-20T00:41:16.542Z,1027.83
2019-03-20T00:42:10.602Z,1027.71
2019-03-20T00:42:11.197Z,1027.72
2019-03-20T00:42:11.796Z,1027.74
2019-03-20T00:42:12.398Z,1027.79
2019-03-20T00:42:12.995Z,1027.79
2019-03-20T00:42:13.594Z,1027.81
2019-03-20T00:42:14.194Z,1027.80
2019-03-20T00:43:08.252Z,1027.71
2019-03-20T00:43:08.852Z,1027.65
2019-03-20T00:43:09.456Z,1027.73
2019-03-20T00:43:10.047Z,1027.75
2019-03-20T00:43:10.646Z,1027.81
2019-03-20T00:43:11.248Z,1027.81
2019-03-20T00:43:11.850Z,1027.79
2019-03-20T00:44:05.930Z,1027.68
2019-03-20T00:44:06.499Z,1027.72
2019-03-20T00:44:07.100Z,1027.75
2019-03-20T00:44:07.700Z,1027.75
2019-03-20T00:44:08.299Z,1027.81
2019-03-20T00:44:08.898Z,1027.78
2019-03-20T00:44:09.505Z,1027.81
2019-03-20T00:45:03.556Z,1027.65
2019-03-20T00:45:04.151Z,1027.69
2019-03-20T00:45:04.751Z,1027.71
2019-03-20T00:45:05.361Z,1027.70
2019-03-20T00:45:05.951Z,1027.76
2019-03-20T00:45:06.551Z,1027.77
2019-03-20T00:45:07.150Z,1027.79
2019-03-20T00:46:01.212Z,1027.64
2019-03-20T00:46:01.803Z,1027.68
2019-03-20T00:46:02.402Z,1027.68
2019-03-20T00:46:03.006Z,1027.72
2019-03-20T00:46:03.605Z,1027.71
2019-03-20T00:46:04.203Z,1027.76
2019-03-20T00:46:04.802Z,1027.76
2019-03-20T00:46:58.867Z,1027.69
2019-03-20T00:46:59.454Z,1027.69
2019-03-20T00:47:00.054Z,1027.73
2019-03-20T00:47:00.654Z,1027.77
2019-03-20T00:47:01.253Z,1027.79
2019-03-20T00:47:01.852Z,1027.74
2019-03-20T00:47:02.453Z,1027.73
2019-03-20T00:47:56.514Z,1027.65
2019-03-20T00:47:57.107Z,1027.68
2019-03-20T00:47:57.706Z,1027.73
2019-03-20T00:47:58.306Z,1027.76
2019-03-20T00:47:58.905Z,1027.80
2019-03-20T00:47:59.508Z,1027.81
2019-03-20T00:48:00.109Z,1027.83
2019-03-20T00:48:55.112Z,1027.68
2019-03-20T00:48:55.680Z,1027.71
2019-03-20T00:48:56.284Z,1027.74
2019-03-20T00:48:56.880Z,1027.77
2019-03-20T00:48:57.479Z,1027.76
2019-03-20T00:48:58.078Z,1027.76
2019-03-20T00:49:52.635Z,1027.71
2019-03-20T00:49:53.242Z,1027.70
2019-03-20T00:49:53.829Z,1027.76
2019-03-20T00:49:54.429Z,1027.77
2019-03-20T00:49:55.028Z,1027.77
2019-03-20T00:49:57.976Z,1027.79
2019-03-20T00:49:58.081Z,1027.84
2019-03-20T00:50:50.284Z,1027.68
2019-03-20T00:50:50.882Z,1027.76
2019-03-20T00:50:51.485Z,1027.78
2019-03-20T00:50:52.081Z,1027.81
2019-03-20T00:50:52.680Z,1027.82
2019-03-20T00:50:53.280Z,1027.80
2019-03-20T00:50:53.881Z,1027.80
2019-03-20T00:51:50.398Z,1027.71
2019-03-20T00:51:50.993Z,1027.74
2019-03-20T00:51:51.597Z,1027.75
2019-03-20T00:52:45.590Z,1027.74
2019-03-20T00:52:46.190Z,1027.74
2019-03-20T00:52:46.785Z,1027.77
2019-03-20T00:52:47.385Z,1027.77
2019-03-20T00:52:47.985Z,1027.79
2019-03-20T00:52:48.586Z,1027.84
2019-03-20T00:52:49.186Z,1027.81
2019-03-20T00:53:43.241Z,1027.75
2019-03-20T00:53:43.835Z,1027.77
2019-03-20T00:53:44.434Z,1027.77
2019-03-20T00:53:45.036Z,1027.78
2019-03-20T00:53:45.637Z,1027.77
2019-03-20T00:53:46.236Z,1027.82
2019-03-20T00:53:46.840Z,1027.79
2019-03-20T00:54:40.919Z,1027.72
2019-03-20T00:54:41.487Z,1027.72
2019-03-20T00:54:42.095Z,1027.78
2019-03-20T00:54:42.688Z,1027.77
2019-03-20T00:54:43.286Z,1027.79
2019-03-20T00:54:43.889Z,1027.80
2019-03-20T00:54:44.486Z,1027.79
2019-03-20T00:55:38.545Z,1027.75
2019-03-20T00:55:39.143Z,1027.76
2019-03-20T00:55:39.739Z,1027.75
2019-03-20T00:55:40.339Z,1027.79
2019-03-20T00:55:40.939Z,1027.75
2019-03-20T00:55:41.539Z,1027.76
2019-03-20T00:55:42.138Z,1027.82
2019-03-20T00:56:36.194Z,1027.74
2019-03-20T00:56:36.793Z,1027.71
2019-03-20T00:56:37.391Z,1027.75
2019-03-20T00:56:38.052Z,1027.75
2019-03-20T00:56:38.591Z,1027.76
2019-03-20T00:56:39.190Z,1027.78
2019-03-20T00:56:39.791Z,1027.80
2019-03-20T00:57:33.847Z,1027.73
2019-03-20T00:57:34.443Z,1027.75
2019-03-20T00:57:35.043Z,1027.75
2019-03-20T00:57:35.643Z,1027.77
2019-03-20T00:57:36.245Z,1027.77
2019-03-20T00:57:36.851Z,1027.76
2019-03-20T00:57:37.444Z,1027.78
2019-03-20T00:58:31.501Z,1027.73
2019-03-20T00:58:32.096Z,1027.76
2019-03-20T00:58:32.694Z,1027.74
2019-03-20T00:58:33.296Z,1027.75
2019-03-20T00:58:33.894Z,1027.80
2019-03-20T00:58:34.494Z,1027.86
2019-03-20T00:58:35.095Z,1027.81
2019-03-20T00:59:29.176Z,1027.83
2019-03-20T00:59:29.749Z,1027.84
2019-03-20T00:59:30.344Z,1027.85
2019-03-20T00:59:30.944Z,1027.82
2019-03-20T00:59:31.544Z,1027.85
2019-03-20T00:59:32.146Z,1027.86
2019-03-20T00:59:32.744Z,1027.83
2019-03-20T01:00:26.807Z,1027.83
2019-03-20T01:00:27.399Z,1027.83
2019-03-20T01:00:27.999Z,1027.86
2019-03-20T01:00:28.598Z,1027.85
2019-03-20T01:00:29.198Z,1027.90
2019-03-20T01:00:29.797Z,1027.90
2019-03-20T01:00:30.396Z,1027.89
2019-03-20T01:01:24.454Z,1027.86
2019-03-20T01:01:25.049Z,1027.83
2019-03-20T01:01:25.649Z,1027.87
2019-03-20T01:01:26.250Z,1027.90
2019-03-20T01:01:26.849Z,1027.92
2019-03-20T01:01:27.449Z,1027.89
2019-03-20T01:01:28.049Z,1027.89
2019-03-20T01:02:22.105Z,1027.91
2019-03-20T01:02:22.702Z,1027.91
2019-03-20T01:02:23.302Z,1027.90
2019-03-20T01:02:23.902Z,1027.92
2019-03-20T01:02:24.505Z,1027.91
2019-03-20T01:02:25.101Z,1027.91
2019-03-20T01:02:25.700Z,1027.92
2019-03-20T01:03:19.762Z,1027.93
2019-03-20T01:03:20.354Z,1027.93
2019-03-20T01:03:20.953Z,1027.90
2019-03-20T01:03:21.553Z,1027.89
2019-03-20T01:03:22.154Z,1027.89
2019-03-20T01:03:22.753Z,1027.91
2019-03-20T01:03:23.353Z,1027.98
2019-03-20T01:04:17.443Z,1027.91
2019-03-20T01:04:18.010Z,1027.92
2019-03-20T01:04:18.608Z,1027.93
2019-03-20T01:04:19.205Z,1027.97
2019-03-20T01:04:19.806Z,1027.94
2019-03-20T01:04:20.404Z,1027.94
2019-03-20T01:04:21.004Z,1027.93
2019-03-20T01:05:15.060Z,1027.93
2019-03-20T01:05:15.656Z,1027.90
2019-03-20T01:05:16.256Z,1027.93
2019-03-20T01:05:16.858Z,1027.95
2019-03-20T01:05:17.457Z,1027.95
2019-03-20T01:05:18.056Z,1027.97
2019-03-20T01:05:18.656Z,1027.98
2019-03-20T01:06:12.717Z,1027.92
2019-03-20T01:06:13.309Z,1027.96
2019-03-20T01:06:13.910Z,1027.91
2019-03-20T01:06:14.509Z,1027.91
2019-03-20T01:06:15.109Z,1027.92
2019-03-20T01:06:15.711Z,1027.93
2019-03-20T01:06:16.309Z,1027.93
2019-03-20T01:07:10.373Z,1027.89
2019-03-20T01:07:10.961Z,1027.91
2019-03-20T01:07:11.566Z,1027.90
2019-03-20T01:07:12.161Z,1027.93
2019-03-20T01:07:12.761Z,1027.97
2019-03-20T01:07:13.361Z,1027.92
2019-03-20T01:07:13.960Z,1027.93
2019-03-20T01:08:08.017Z,1027.98
2019-03-20T01:08:08.616Z,1027.95
2019-03-20T01:08:09.213Z,1027.95
2019-03-20T01:08:09.813Z,1027.97
2019-03-20T01:08:10.414Z,1027.96
2019-03-20T01:08:11.011Z,1027.99
2019-03-20T01:08:11.611Z,1027.96
2019-03-20T01:09:05.679Z,1027.99
2019-03-20T01:09:06.263Z,1027.98
2019-03-20T01:09:06.864Z,1027.99
2019-03-20T01:09:07.464Z,1028.02
2019-03-20T01:09:08.063Z,1028.03
2019-03-20T01:09:08.662Z,1028.02
2019-03-20T01:09:09.264Z,1028.00
2019-03-20T01:10:03.353Z,1028.02
2019-03-20T01:10:03.917Z,1028.04
2019-03-20T01:10:04.516Z,1028.02
2019-03-20T01:10:05.115Z,1028.01
2019-03-20T01:10:05.715Z,1028.02
2019-03-20T01:10:06.315Z,1028.02
2019-03-20T01:10:06.915Z,1028.03
2019-03-20T01:11:00.974Z,1028.02
2019-03-20T01:11:01.568Z,1028.05
2019-03-20T01:11:02.169Z,1028.02
2019-03-20T01:11:02.767Z,1028.02
2019-03-20T01:11:03.368Z,1028.05
2019-03-20T01:11:03.968Z,1028.02
2019-03-20T01:11:04.581Z,1028.06
2019-03-20T01:11:58.624Z,1028.03
2019-03-20T01:11:59.221Z,1028.05
2019-03-20T01:11:59.818Z,1028.04
2019-03-20T01:12:00.419Z,1028.05
2019-03-20T01:12:01.018Z,1028.05
2019-03-20T01:12:01.617Z,1028.06
2019-03-20T01:12:02.219Z,1028.06
2019-03-20T01:12:56.275Z,1028.04
2019-03-20T01:12:56.873Z,1028.04
2019-03-20T01:12:57.472Z,1028.06
2019-03-20T01:12:58.074Z,1028.07
2019-03-20T01:12:58.670Z,1028.06
2019-03-20T01:12:59.270Z,1028.04
2019-03-20T01:12:59.873Z,1028.06
2019-03-20T01:13:53.927Z,1028.08
2019-03-20T01:13:54.524Z,1028.06
2019-03-20T01:13:55.126Z,1028.08
2019-03-20T01:13:55.721Z,1028.07
2019-03-20T01:13:56.321Z,1028.05
2019-03-20T01:13:56.923Z,1028.02
2019-03-20T01:13:57.522Z,1028.08
2019-03-20T01:14:51.582Z,1028.04
2019-03-20T01:14:52.175Z,1028.06
2019-03-20T01:14:52.776Z,1028.07
2019-03-20T01:14:53.374Z,1028.06
2019-03-20T01:14:53.980Z,1028.10
2019-03-20T01:14:54.575Z,1028.07
2019-03-20T01:14:55.173Z,1028.07
2019-03-20T01:15:49.255Z,1028.06
2019-03-20T01:15:49.840Z,1028.07
2019-03-20T01:15:50.424Z,1028.08
2019-03-20T01:15:51.023Z,1028.08
2019-03-20T01:15:51.628Z,1028.04
2019-03-20T01:15:52.224Z,1028.06
2019-03-20T01:15:52.822Z,1028.09
2019-03-20T01:16:46.371Z,1028.06
2019-03-20T01:16:46.966Z,1028.03
2019-03-20T01:16:47.568Z,1028.03
2019-03-20T01:16:48.167Z,1028.07
2019-03-20T01:16:48.767Z,1028.06
2019-03-20T01:16:49.366Z,1028.07
2019-03-20T01:16:49.965Z,1028.07
2019-03-20T01:16:50.566Z,1028.09
2019-03-20T01:17:44.534Z,1028.06
2019-03-20T01:17:45.135Z,1028.07
2019-03-20T01:17:45.786Z,1028.07
2019-03-20T01:17:46.330Z,1028.09
2019-03-20T01:17:46.928Z,1028.06
2019-03-20T01:17:47.529Z,1028.05
2019-03-20T01:17:48.129Z,1028.09
2019-03-20T01:19:02.154Z,1028.07
2019-03-20T01:19:02.754Z,1028.03
2019-03-20T01:19:03.351Z,1028.04
2019-03-20T01:19:03.951Z,1028.06
2019-03-20T01:19:04.548Z,1028.09
2019-03-20T01:19:05.152Z,1028.06
2019-03-20T01:19:05.749Z,1028.08
2019-03-20T01:19:59.806Z,1028.02
2019-03-20T01:20:00.402Z,1028.00
2019-03-20T01:20:01.002Z,1028.06
2019-03-20T01:20:01.609Z,1028.03
2019-03-20T01:20:02.202Z,1028.07
2019-03-20T01:20:02.802Z,1028.08
2019-03-20T01:20:03.401Z,1028.08
2019-03-20T01:20:56.981Z,1028.05
2019-03-20T01:20:57.543Z,1028.02
2019-03-20T01:20:58.142Z,1028.06
2019-03-20T01:20:58.741Z,1028.03
2019-03-20T01:20:59.343Z,1028.05
2019-03-20T01:20:59.941Z,1028.03
2019-03-20T01:21:00.540Z,1028.08
2019-03-20T01:21:01.141Z,1028.07
2019-03-20T01:22:06.786Z,1028.07
2019-03-20T01:22:07.380Z,1028.05
2019-03-20T01:22:07.979Z,1028.07
2019-03-20T01:22:08.580Z,1028.06
2019-03-20T01:22:09.179Z,1028.07
2019-03-20T01:22:09.779Z,1028.07
2019-03-20T01:22:10.378Z,1028.05
2019-03-20T01:23:23.795Z,1028.06
2019-03-20T01:23:24.384Z,1028.08
2019-03-20T01:23:24.984Z,1028.08
2019-03-20T01:23:25.593Z,1028.09
2019-03-20T01:23:26.184Z,1028.10
2019-03-20T01:23:26.787Z,1028.09
2019-03-20T01:23:27.383Z,1028.09
2019-03-20T01:24:21.440Z,1028.14
2019-03-20T01:24:22.036Z,1028.13
2019-03-20T01:24:22.637Z,1028.11
2019-03-20T01:24:23.235Z,1028.18
2019-03-20T01:24:23.836Z,1028.15
2019-03-20T01:24:24.436Z,1028.15
2019-03-20T01:24:25.036Z,1028.15
2019-03-20T01:25:19.091Z,1028.12
2019-03-20T01:25:19.688Z,1028.14
2019-03-20T01:25:20.287Z,1028.15
2019-03-20T01:25:20.891Z,1028.13
2019-03-20T01:25:21.489Z,1028.13
2019-03-20T01:25:22.096Z,1028.13
2019-03-20T01:25:22.687Z,1028.13
2019-03-20T01:26:16.768Z,1028.15
2019-03-20T01:26:17.339Z,1028.15
2019-03-20T01:26:17.939Z,1028.12
2019-03-20T01:26:18.539Z,1028.15
2019-03-20T01:26:19.139Z,1028.14
2019-03-20T01:26:19.739Z,1028.13
2019-03-20T01:26:20.338Z,1028.15
2019-03-20T01:27:14.397Z,1028.20
2019-03-20T01:27:14.991Z,1028.20
2019-03-20T01:27:15.591Z,1028.21
2019-03-20T01:27:16.191Z,1028.21
2019-03-20T01:27:16.791Z,1028.17
2019-03-20T01:27:17.391Z,1028.16
2019-03-20T01:27:17.994Z,1028.20
2019-03-20T01:28:12.046Z,1028.21
2019-03-20T01:28:12.644Z,1028.19
2019-03-20T01:28:13.272Z,1028.20
2019-03-20T01:28:13.841Z,1028.22
2019-03-20T01:28:14.443Z,1028.20
2019-03-20T01:28:15.042Z,1028.25
2019-03-20T01:28:15.642Z,1028.20
2019-03-20T01:29:09.699Z,1028.20
2019-03-20T01:29:10.296Z,1028.21
2019-03-20T01:29:10.894Z,1028.22
2019-03-20T01:29:11.497Z,1028.25
2019-03-20T01:29:12.096Z,1028.24
2019-03-20T01:29:12.693Z,1028.17
2019-03-20T01:29:13.295Z,1028.22
2019-03-20T01:30:07.353Z,1028.24
2019-03-20T01:30:07.946Z,1028.19
2019-03-20T01:30:08.546Z,1028.23
2019-03-20T01:30:09.146Z,1028.20
2019-03-20T01:30:09.745Z,1028.19
2019-03-20T01:30:10.345Z,1028.20
2019-03-20T01:30:10.945Z,1028.18
2019-03-20T01:31:05.005Z,1028.24
2019-03-20T01:31:05.598Z,1028.21
2019-03-20T01:31:06.198Z,1028.21
2019-03-20T01:31:06.798Z,1028.21
2019-03-20T01:31:07.397Z,1028.21
2019-03-20T01:31:08.000Z,1028.21
2019-03-20T01:31:08.597Z,1028.20
2019-03-20T01:32:02.677Z,1028.20
2019-03-20T01:32:03.251Z,1028.21
2019-03-20T01:32:03.849Z,1028.24
2019-03-20T01:32:04.450Z,1028.22
2019-03-20T01:32:05.054Z,1028.16
2019-03-20T01:32:05.649Z,1028.22
2019-03-20T01:32:06.251Z,1028.22
2019-03-20T01:33:00.308Z,1028.23
2019-03-20T01:33:00.902Z,1028.20
2019-03-20T01:33:01.502Z,1028.19
2019-03-20T01:33:02.101Z,1028.22
2019-03-20T01:33:02.703Z,1028.19
2019-03-20T01:33:03.302Z,1028.22
2019-03-20T01:33:03.901Z,1028.21
2019-03-20T01:33:57.957Z,1028.17
2019-03-20T01:33:58.552Z,1028.17
2019-03-20T01:33:59.154Z,1028.16
2019-03-20T01:33:59.753Z,1028.17
2019-03-20T01:34:00.357Z,1028.15
2019-03-20T01:34:00.952Z,1028.14
2019-03-20T01:34:01.554Z,1028.13
2019-03-20T01:34:55.608Z,1028.18
2019-03-20T01:34:56.206Z,1028.20
2019-03-20T01:34:56.804Z,1028.14
2019-03-20T01:34:57.407Z,1028.14
2019-03-20T01:34:58.004Z,1028.14
2019-03-20T01:34:58.606Z,1028.14
2019-03-20T01:34:59.204Z,1028.14
2019-03-20T01:35:53.262Z,1028.18
2019-03-20T01:35:53.857Z,1028.16
2019-03-20T01:35:54.456Z,1028.11
2019-03-20T01:35:55.058Z,1028.12
2019-03-20T01:35:55.655Z,1028.12
2019-03-20T01:35:56.259Z,1028.16
2019-03-20T01:35:56.855Z,1028.18
2019-03-20T01:36:50.937Z,1028.18
2019-03-20T01:36:51.509Z,1028.15
2019-03-20T01:36:52.108Z,1028.16
2019-03-20T01:36:52.710Z,1028.16
2019-03-20T01:36:53.309Z,1028.19
2019-03-20T01:36:53.907Z,1028.19
2019-03-20T01:36:54.507Z,1028.17
2019-03-20T01:37:48.564Z,1028.17
2019-03-20T01:37:49.160Z,1028.15
2019-03-20T01:37:49.759Z,1028.20
2019-03-20T01:37:50.360Z,1028.18
2019-03-20T01:37:50.966Z,1028.21
2019-03-20T01:37:51.560Z,1028.19
2019-03-20T01:37:52.159Z,1028.19
2019-03-20T01:38:46.216Z,1028.19
2019-03-20T01:38:46.813Z,1028.24
2019-03-20T01:38:47.411Z,1028.18
2019-03-20T01:38:48.017Z,1028.22
2019-03-20T01:38:48.610Z,1028.24
2019-03-20T01:38:49.210Z,1028.20
2019-03-20T01:38:49.812Z,1028.22
2019-03-20T01:39:43.868Z,1028.22
2019-03-20T01:39:44.467Z,1028.25
2019-03-20T01:39:45.067Z,1028.23
2019-03-20T01:39:45.664Z,1028.22
2019-03-20T01:39:46.264Z,1028.22
2019-03-20T01:39:46.868Z,1028.21
2019-03-20T01:39:47.463Z,1028.18
2019-03-20T01:40:41.522Z,1028.19
2019-03-20T01:40:42.116Z,1028.19
2019-03-20T01:40:42.717Z,1028.22
2019-03-20T01:40:43.318Z,1028.17
2019-03-20T01:40:43.915Z,1028.20
2019-03-20T01:40:44.518Z,1028.19
2019-03-20T01:40:45.115Z,1028.21
2019-03-20T01:41:39.197Z,1028.22
2019-03-20T01:41:39.767Z,1028.19
2019-03-20T01:41:40.367Z,1028.20
2019-03-20T01:41:40.966Z,1028.20
2019-03-20T01:41:41.568Z,1028.22
2019-03-20T01:41:42.167Z,1028.23
2019-03-20T01:41:42.767Z,1028.19
2019-03-20T01:42:36.825Z,1028.21
2019-03-20T01:42:37.418Z,1028.20
2019-03-20T01:42:38.018Z,1028.19
2019-03-20T01:42:38.617Z,1028.19
2019-03-20T01:42:39.218Z,1028.19
2019-03-20T01:42:39.819Z,1028.18
2019-03-20T01:42:40.416Z,1028.18
2019-03-20T01:43:34.475Z,1028.18
2019-03-20T01:43:35.075Z,1028.19
2019-03-20T01:43:35.670Z,1028.15
2019-03-20T01:43:36.270Z,1028.17
2019-03-20T01:43:36.870Z,1028.17
2019-03-20T01:43:37.472Z,1028.20
2019-03-20T01:43:38.071Z,1028.15
2019-03-20T01:44:32.125Z,1028.14
2019-03-20T01:44:32.722Z,1028.18
2019-03-20T01:44:33.324Z,1028.15
2019-03-20T01:44:33.922Z,1028.17
2019-03-20T01:44:34.521Z,1028.19
2019-03-20T01:44:35.122Z,1028.18
2019-03-20T01:44:35.721Z,1028.18
2019-03-20T01:45:29.780Z,1028.17
2019-03-20T01:45:30.382Z,1028.20
2019-03-20T01:45:30.974Z,1028.16
2019-03-20T01:45:31.573Z,1028.18
2019-03-20T01:45:32.173Z,1028.16
2019-03-20T01:45:32.773Z,1028.17
2019-03-20T01:45:33.373Z,1028.14
2019-03-20T01:46:27.456Z,1028.19
2019-03-20T01:46:28.027Z,1028.19
2019-03-20T01:46:28.627Z,1028.16
2019-03-20T01:46:29.225Z,1028.17
2019-03-20T01:46:29.825Z,1028.16
2019-03-20T01:46:30.425Z,1028.15
2019-03-20T01:46:31.025Z,1028.16
2019-03-20T01:47:25.082Z,1028.18
2019-03-20T01:47:25.679Z,1028.16
2019-03-20T01:47:26.278Z,1028.20
2019-03-20T01:47:26.878Z,1028.20
2019-03-20T01:47:27.477Z,1028.14
2019-03-20T01:47:28.076Z,1028.19
2019-03-20T01:47:28.677Z,1028.16
2019-03-20T01:48:22.732Z,1028.18
2019-03-20T01:48:23.328Z,1028.15
2019-03-20T01:48:23.929Z,1028.21
2019-03-20T01:48:24.530Z,1028.17
2019-03-20T01:48:25.129Z,1028.15
2019-03-20T01:48:25.730Z,1028.18
2019-03-20T01:48:26.328Z,1028.12
2019-03-20T01:49:20.383Z,1028.15
2019-03-20T01:49:20.980Z,1028.16
2019-03-20T01:49:21.580Z,1028.17
2019-03-20T01:49:22.181Z,1028.20
2019-03-20T01:49:22.780Z,1028.17
2019-03-20T01:49:23.380Z,1028.14
2019-03-20T01:49:24.047Z,1028.15
2019-03-20T01:50:18.038Z,1028.16
2019-03-20T01:50:18.632Z,1028.18
2019-03-20T01:50:19.232Z,1028.17
2019-03-20T01:50:19.832Z,1028.19
2019-03-20T01:50:20.431Z,1028.17
2019-03-20T01:50:21.031Z,1028.19
2019-03-20T01:50:21.634Z,1028.16
2019-03-20T01:51:15.688Z,1028.17
2019-03-20T01:51:16.283Z,1028.18
2019-03-20T01:51:16.921Z,1028.16
2019-03-20T01:51:17.483Z,1028.19
2019-03-20T01:51:18.082Z,1028.20
2019-03-20T01:51:18.682Z,1028.17
2019-03-20T01:51:19.282Z,1028.19
2019-03-20T01:52:13.365Z,1028.17
2019-03-20T01:52:13.936Z,1028.12
2019-03-20T01:52:14.537Z,1028.18
2019-03-20T01:52:15.137Z,1028.18
2019-03-20T01:52:15.734Z,1028.19
2019-03-20T01:52:16.335Z,1028.19
2019-03-20T01:52:16.936Z,1028.17
2019-03-20T01:53:10.990Z,1028.16
2019-03-20T01:53:11.587Z,1028.20
2019-03-20T01:53:12.188Z,1028.17
2019-03-20T01:53:12.786Z,1028.22
2019-03-20T01:53:13.386Z,1028.18
2019-03-20T01:53:13.987Z,1028.18
2019-03-20T01:53:14.586Z,1028.21
2019-03-20T01:54:08.644Z,1028.23
2019-03-20T01:54:09.240Z,1028.20
2019-03-20T01:54:09.841Z,1028.15
2019-03-20T01:54:10.438Z,1028.18
2019-03-20T01:54:11.039Z,1028.16
2019-03-20T01:54:11.638Z,1028.17
2019-03-20T01:54:12.240Z,1028.13
2019-03-20T01:55:06.295Z,1028.21
2019-03-20T01:55:06.891Z,1028.18
2019-03-20T01:55:07.491Z,1028.19
2019-03-20T01:55:08.090Z,1028.18
2019-03-20T01:55:08.691Z,1028.19
2019-03-20T01:55:09.290Z,1028.21
2019-03-20T01:55:09.890Z,1028.17
2019-03-20T01:56:03.438Z,1028.17
2019-03-20T01:56:04.035Z,1028.20
2019-03-20T01:56:04.631Z,1028.15
2019-03-20T01:56:05.232Z,1028.16
2019-03-20T01:56:05.831Z,1028.20
2019-03-20T01:56:06.433Z,1028.19
2019-03-20T01:56:07.031Z,1028.13
2019-03-20T01:56:07.630Z,1028.16
2019-03-20T01:57:01.622Z,1028.16
2019-03-20T01:57:02.194Z,1028.18
2019-03-20T01:57:02.794Z,1028.16
2019-03-20T01:57:03.396Z,1028.18
2019-03-20T01:57:03.993Z,1028.21
2019-03-20T01:57:04.595Z,1028.15
2019-03-20T01:57:05.207Z,1028.18
2019-03-20T01:58:19.217Z,1028.17
2019-03-20T01:58:19.815Z,1028.16
2019-03-20T01:58:20.414Z,1028.13
2019-03-20T01:58:21.014Z,1028.17
2019-03-20T01:58:21.615Z,1028.17
2019-03-20T01:58:22.213Z,1028.18
2019-03-20T01:58:22.813Z,1028.19
2019-03-20T01:59:16.359Z,1028.17
2019-03-20T01:59:16.955Z,1028.17
2019-03-20T01:59:17.556Z,1028.20
2019-03-20T01:59:18.157Z,1028.21
2019-03-20T01:59:18.754Z,1028.20
2019-03-20T01:59:19.356Z,1028.19
2019-03-20T01:59:19.954Z,1028.17
2019-03-20T01:59:20.553Z,1028.17
2019-03-20T02:00:14.625Z,1028.24
2019-03-20T02:00:15.219Z,1028.20
2019-03-20T02:00:15.823Z,1028.25
2019-03-20T02:00:16.419Z,1028.19
2019-03-20T02:00:17.023Z,1028.21
2019-03-20T02:00:17.619Z,1028.21
2019-03-20T02:00:18.219Z,1028.21
2019-03-20T02:01:12.276Z,1028.26
2019-03-20T02:01:12.872Z,1028.23
2019-03-20T02:01:13.472Z,1028.24
2019-03-20T02:01:14.072Z,1028.24
2019-03-20T02:01:14.673Z,1028.26
2019-03-20T02:01:15.271Z,1028.24
2019-03-20T02:01:15.871Z,1028.22
2019-03-20T02:02:09.956Z,1028.30
2019-03-20T02:02:10.525Z,1028.31
2019-03-20T02:02:11.124Z,1028.29
2019-03-20T02:02:11.723Z,1028.28
2019-03-20T02:02:12.322Z,1028.27
2019-03-20T02:02:12.922Z,1028.26
2019-03-20T02:02:13.523Z,1028.29
2019-03-20T02:03:07.580Z,1028.30
2019-03-20T02:03:08.177Z,1028.32
2019-03-20T02:03:08.775Z,1028.31
2019-03-20T02:03:09.374Z,1028.32
2019-03-20T02:03:09.977Z,1028.32
2019-03-20T02:03:10.576Z,1028.30
2019-03-20T02:03:11.174Z,1028.31
2019-03-20T02:04:05.238Z,1028.32
2019-03-20T02:04:05.833Z,1028.34
2019-03-20T02:04:06.427Z,1028.32
2019-03-20T02:04:07.027Z,1028.28
2019-03-20T02:04:07.630Z,1028.30
2019-03-20T02:04:08.227Z,1028.31
2019-03-20T02:04:08.840Z,1028.32
2019-03-20T02:05:02.883Z,1028.29
2019-03-20T02:05:03.484Z,1028.29
2019-03-20T02:05:04.077Z,1028.30
2019-03-20T02:05:04.678Z,1028.30
2019-03-20T02:05:05.277Z,1028.30
2019-03-20T02:05:05.878Z,1028.29
2019-03-20T02:05:06.478Z,1028.27
2019-03-20T02:06:00.533Z,1028.27
2019-03-20T02:06:01.134Z,1028.31
2019-03-20T02:06:01.731Z,1028.31
2019-03-20T02:06:02.330Z,1028.30
2019-03-20T02:06:02.929Z,1028.29
2019-03-20T02:06:03.533Z,1028.28
2019-03-20T02:06:04.131Z,1028.25
2019-03-20T02:06:58.211Z,1028.32
2019-03-20T02:06:58.785Z,1028.28
2019-03-20T02:06:59.390Z,1028.28
2019-03-20T02:06:59.981Z,1028.25
2019-03-20T02:07:00.581Z,1028.26
2019-03-20T02:07:01.181Z,1028.28
2019-03-20T02:07:01.783Z,1028.25
2019-03-20T02:07:55.840Z,1028.26
2019-03-20T02:07:56.433Z,1028.27
2019-03-20T02:07:57.035Z,1028.28
2019-03-20T02:07:57.634Z,1028.25
2019-03-20T02:07:58.233Z,1028.25
2019-03-20T02:07:58.835Z,1028.27
2019-03-20T02:07:59.433Z,1028.23
2019-03-20T02:08:53.488Z,1028.25
2019-03-20T02:08:54.086Z,1028.28
2019-03-20T02:08:54.685Z,1028.30
2019-03-20T02:08:55.286Z,1028.30
2019-03-20T02:08:55.885Z,1028.26